Weather at Las Américas International Airport

Public forecast

Using degrees Celsius for public forecast. Weather courtesy of forecast.io.

Current aviation weather report (METAR) for Las Américas International Airport

Retrieved 2022/07/06 03:00 UTC (14 minutes ago):

MDSD 060300Z 02004KT 9999 SCT016 23/22 Q1017

Aviation forecast (TAF) for Las Américas International Airport

Retrieved 2022-07-06 00:30 UTC (3 hours ago):

TAF MDSD 052200Z 0600/0700 07010KT 8000-RA FEW014CB BKN015 TEMPO 0600/0604 6000-TSRA FEW012CB BKN014 BKN070